createdAt,value
2024-03-08T00:00:10.610Z,4.89
2024-03-08T00:02:39.799Z,4.83
2024-03-08T00:05:07.331Z,4.89
2024-03-08T00:07:34.190Z,4.88
2024-03-08T00:10:00.967Z,4.80
2024-03-08T00:12:27.712Z,4.75
2024-03-08T00:14:54.466Z,4.89
2024-03-08T00:17:21.432Z,4.85
2024-03-08T00:19:49.566Z,4.90
2024-03-08T00:22:16.346Z,4.87
2024-03-08T00:24:43.121Z,4.86
2024-03-08T00:27:09.985Z,4.83
2024-03-08T00:29:36.825Z,4.87
2024-03-08T00:32:03.607Z,4.87
2024-03-08T00:34:30.334Z,4.92
2024-03-08T00:36:58.380Z,4.89
2024-03-08T00:39:25.216Z,4.85
2024-03-08T00:41:51.986Z,4.72
2024-03-08T00:44:18.788Z,4.66
2024-03-08T00:46:45.495Z,4.67
2024-03-08T00:49:12.215Z,4.64
2024-03-08T00:51:38.959Z,4.59
2024-03-08T00:54:07.205Z,4.57
2024-03-08T00:56:34.039Z,4.54
2024-03-08T00:59:00.787Z,4.59
2024-03-08T01:01:27.588Z,4.49
2024-03-08T01:03:54.391Z,4.48
2024-03-08T01:06:21.089Z,4.46
2024-03-08T01:08:47.852Z,4.48
2024-03-08T01:11:16.000Z,4.62
2024-03-08T01:13:42.793Z,4.61
2024-03-08T01:16:10.588Z,4.57
2024-03-08T01:18:38.322Z,4.68
2024-03-08T01:21:05.658Z,4.59
2024-03-08T01:23:32.428Z,4.66
2024-03-08T01:25:59.164Z,4.67
2024-03-08T01:28:27.245Z,4.66
2024-03-08T01:30:53.946Z,4.58
2024-03-08T01:33:20.697Z,4.53
2024-03-08T01:35:47.533Z,4.50
2024-03-08T01:38:14.228Z,4.41
2024-03-08T01:40:40.986Z,4.48
2024-03-08T01:43:19.329Z,4.48
2024-03-08T01:45:47.432Z,4.55
2024-03-08T01:48:14.976Z,4.50
2024-03-08T01:50:41.817Z,4.49
2024-03-08T01:53:08.699Z,4.48
2024-03-08T01:55:35.444Z,4.35
2024-03-08T01:58:02.162Z,4.28
2024-03-08T02:00:28.900Z,4.22
2024-03-08T02:02:56.979Z,4.23
2024-03-08T02:05:23.696Z,4.26
2024-03-08T02:07:50.466Z,4.23
2024-03-08T02:10:17.149Z,4.11
2024-03-08T02:12:43.917Z,4.28
2024-03-08T02:15:10.782Z,4.31
2024-03-08T02:17:37.703Z,4.39
2024-03-08T02:20:06.679Z,4.40
2024-03-08T02:22:34.734Z,4.31
2024-03-08T02:25:01.547Z,4.40
2024-03-08T02:27:28.259Z,4.32
2024-03-08T02:29:55.865Z,4.27
2024-03-08T02:32:22.663Z,4.26
2024-03-08T02:34:49.426Z,4.26
2024-03-08T02:37:16.131Z,4.13
2024-03-08T02:39:44.234Z,4.08
2024-03-08T02:42:11.014Z,4.03
2024-03-08T02:44:37.901Z,4.07
2024-03-08T02:47:04.914Z,4.05
2024-03-08T02:49:31.760Z,4.11
2024-03-08T02:51:58.517Z,4.04
2024-03-08T02:54:25.184Z,4.08
2024-03-08T02:56:53.366Z,4.15
2024-03-08T02:59:20.058Z,3.99
2024-03-08T03:01:46.783Z,3.99
2024-03-08T03:04:13.545Z,3.90
2024-03-08T03:06:40.268Z,3.95
2024-03-08T03:09:07.099Z,3.77
2024-03-08T03:11:34.049Z,3.78
2024-03-08T03:14:02.192Z,3.80
2024-03-08T03:16:28.910Z,3.89
2024-03-08T03:18:55.708Z,3.99
2024-03-08T03:21:22.494Z,3.95
2024-03-08T03:23:49.303Z,3.92
2024-03-08T03:26:16.211Z,3.76
2024-03-08T03:28:42.927Z,3.92
2024-03-08T03:31:11.095Z,3.90
2024-03-08T03:33:37.970Z,3.99
2024-03-08T03:36:05.632Z,4.00
2024-03-08T03:38:32.383Z,4.00
2024-03-08T03:40:59.105Z,3.92
2024-03-08T03:43:25.778Z,4.06
2024-03-08T03:45:52.513Z,4.10
2024-03-08T03:48:20.648Z,3.99
2024-03-08T03:50:47.447Z,3.90
2024-03-08T03:53:14.197Z,3.91
2024-03-08T03:55:41.920Z,3.81
2024-03-08T03:58:08.918Z,3.87
2024-03-08T04:00:35.734Z,3.91
2024-03-08T04:03:02.649Z,3.89
2024-03-08T04:05:30.894Z,3.90
2024-03-08T04:07:57.621Z,3.88
2024-03-08T04:10:24.370Z,3.96
2024-03-08T04:12:51.070Z,4.01
2024-03-08T04:15:17.854Z,3.91
2024-03-08T04:17:44.767Z,3.87
2024-03-08T04:20:12.071Z,3.83
2024-03-08T04:22:40.431Z,3.91
2024-03-08T04:25:07.828Z,3.82
2024-03-08T04:27:34.565Z,3.81
2024-03-08T04:30:01.672Z,3.81
2024-03-08T04:32:28.605Z,3.78
2024-03-08T04:34:55.545Z,3.79
2024-03-08T04:37:22.286Z,3.63
2024-03-08T04:39:50.335Z,3.49
2024-03-08T04:42:17.248Z,3.36
2024-03-08T04:44:44.081Z,3.32
2024-03-08T04:47:10.838Z,3.32
2024-03-08T04:49:37.585Z,3.36
2024-03-08T04:52:04.285Z,3.40
2024-03-08T04:54:31.144Z,3.31
2024-03-08T04:56:59.267Z,3.44
2024-03-08T04:59:26.031Z,3.40
2024-03-08T05:01:52.726Z,3.39
2024-03-08T05:04:19.424Z,3.42
2024-03-08T05:06:46.128Z,3.40
2024-03-08T05:09:12.888Z,3.42
2024-03-08T05:11:39.662Z,3.43
2024-03-08T05:14:07.715Z,3.42
2024-03-08T05:16:34.438Z,3.47
2024-03-08T05:19:01.230Z,3.55
2024-03-08T05:21:27.924Z,3.53
2024-03-08T05:23:54.712Z,3.53
2024-03-08T05:26:21.422Z,3.68
2024-03-08T05:28:48.210Z,3.69
2024-03-08T05:31:20.680Z,3.64
2024-03-08T05:33:47.524Z,3.57
2024-03-08T05:36:14.288Z,3.58
2024-03-08T05:38:41.047Z,3.66
2024-03-08T05:41:07.790Z,3.67
2024-03-08T05:43:34.530Z,3.75
2024-03-08T05:46:01.292Z,3.66
2024-03-08T05:48:29.462Z,3.62
2024-03-08T05:50:56.221Z,3.46
2024-03-08T05:53:22.992Z,3.62
2024-03-08T05:55:49.707Z,3.74
2024-03-08T05:58:16.532Z,3.72
2024-03-08T06:00:43.332Z,3.69
2024-03-08T06:03:10.100Z,3.76
2024-03-08T06:05:38.507Z,3.74
2024-03-08T06:08:05.976Z,3.79
2024-03-08T06:10:32.743Z,3.83
2024-03-08T06:12:59.453Z,3.85
2024-03-08T06:15:26.292Z,3.98
2024-03-08T06:17:53.081Z,4.01
2024-03-08T06:20:19.836Z,3.82
2024-03-08T06:22:47.912Z,3.77
2024-03-08T06:25:14.657Z,3.89
2024-03-08T06:27:41.389Z,3.87
2024-03-08T06:30:08.894Z,3.88
2024-03-08T06:32:35.743Z,3.83
2024-03-08T06:35:02.727Z,3.90
2024-03-08T06:37:29.426Z,3.95
2024-03-08T06:39:57.551Z,3.82
2024-03-08T06:42:24.329Z,3.95
2024-03-08T06:44:51.234Z,3.91
2024-03-08T06:47:17.996Z,3.94
2024-03-08T06:49:44.765Z,4.09
2024-03-08T06:52:11.588Z,4.07
2024-03-08T06:54:38.368Z,3.97
2024-03-08T06:57:06.656Z,3.99
2024-03-08T06:59:33.505Z,3.99
2024-03-08T07:02:00.334Z,3.93
2024-03-08T07:04:27.156Z,3.93
2024-03-08T07:06:53.959Z,3.88
2024-03-08T07:09:20.696Z,3.98
2024-03-08T07:11:47.574Z,4.09
2024-03-08T07:14:15.736Z,4.05
2024-03-08T07:16:42.608Z,4.09
2024-03-08T07:19:09.365Z,4.19
2024-03-08T07:21:36.088Z,4.29
2024-03-08T07:24:02.865Z,4.22
2024-03-08T07:26:29.561Z,4.16
2024-03-08T07:28:56.280Z,4.18
2024-03-08T07:31:24.341Z,4.33
2024-03-08T07:33:51.307Z,4.22
2024-03-08T07:36:18.169Z,4.29
2024-03-08T07:38:44.987Z,4.33
2024-03-08T07:41:13.127Z,4.10
2024-03-08T07:43:41.036Z,4.21
2024-03-08T07:46:07.763Z,4.28
2024-03-08T07:48:36.085Z,4.28
2024-03-08T07:51:02.910Z,3.94
2024-03-08T07:53:29.600Z,4.27
2024-03-08T07:55:56.409Z,4.03
2024-03-08T07:58:23.222Z,3.93
2024-03-08T08:00:49.936Z,3.75
2024-03-08T08:03:16.728Z,3.97
2024-03-08T08:05:44.798Z,4.17
2024-03-08T08:08:11.724Z,4.06
2024-03-08T08:10:38.844Z,4.12
2024-03-08T08:13:06.193Z,4.00
2024-03-08T08:15:33.112Z,4.22
2024-03-08T08:17:59.849Z,4.29
2024-03-08T08:20:26.643Z,4.34
2024-03-08T08:22:54.761Z,4.49
2024-03-08T08:25:21.888Z,4.39
2024-03-08T08:27:48.734Z,4.48
2024-03-08T08:30:15.828Z,4.56
2024-03-08T08:32:42.594Z,4.24
2024-03-08T08:35:09.420Z,4.45
2024-03-08T08:37:36.249Z,4.49
2024-03-08T08:40:05.336Z,4.23
2024-03-08T08:42:32.104Z,4.37
2024-03-08T08:45:03.006Z,4.56
2024-03-08T08:47:35.816Z,4.55
2024-03-08T08:50:02.672Z,4.70
2024-03-08T08:52:29.470Z,4.66
2024-03-08T08:54:56.264Z,4.45
2024-03-08T08:57:24.417Z,4.67
2024-03-08T08:59:51.130Z,4.73
2024-03-08T09:02:18.519Z,4.70
2024-03-08T09:04:45.724Z,4.89
2024-03-08T09:07:12.462Z,5.00
2024-03-08T09:09:39.147Z,4.98
2024-03-08T09:12:06.419Z,5.01
2024-03-08T09:14:34.823Z,4.93
2024-03-08T09:17:01.720Z,5.06
2024-03-08T09:19:28.456Z,4.98
2024-03-08T09:21:55.224Z,4.76
2024-03-08T09:24:21.942Z,4.91
2024-03-08T09:26:48.684Z,5.19
2024-03-08T09:29:15.401Z,5.28
2024-03-08T09:31:43.520Z,5.40
2024-03-08T09:34:13.455Z,5.27
2024-03-08T09:36:44.066Z,5.41
2024-03-08T09:39:10.757Z,5.53
2024-03-08T09:41:37.504Z,5.34
2024-03-08T09:44:04.705Z,5.29
2024-03-08T09:46:31.476Z,5.37
2024-03-08T09:48:59.521Z,5.37
2024-03-08T09:51:28.782Z,5.37
2024-03-08T09:53:55.484Z,5.55
2024-03-08T09:56:22.597Z,5.45
2024-03-08T09:58:49.436Z,5.65
2024-03-08T10:01:16.257Z,5.86
2024-03-08T10:03:43.034Z,5.99
2024-03-08T10:06:11.077Z,6.11
2024-03-08T10:08:37.783Z,5.99
2024-03-08T10:11:04.840Z,6.13
2024-03-08T10:13:31.858Z,6.28
2024-03-08T10:15:58.584Z,6.43
2024-03-08T10:18:25.324Z,6.55
2024-03-08T10:21:14.152Z,6.53
2024-03-08T10:23:40.947Z,6.60
2024-03-08T10:26:11.706Z,6.59
2024-03-08T10:28:38.449Z,6.63
2024-03-08T10:31:05.174Z,6.68
2024-03-08T10:33:31.942Z,6.89
2024-03-08T10:35:58.638Z,6.71
2024-03-08T10:38:26.733Z,6.85
2024-03-08T10:40:53.533Z,6.78
2024-03-08T10:43:26.859Z,6.92
2024-03-08T10:45:57.743Z,7.00
2024-03-08T10:48:28.416Z,7.04
2024-03-08T10:50:55.174Z,7.30
2024-03-08T10:53:21.968Z,7.41
2024-03-08T10:55:50.078Z,7.30
2024-03-08T10:58:16.954Z,7.41
2024-03-08T11:00:43.752Z,7.41
2024-03-08T11:03:30.958Z,7.53
2024-03-08T11:05:57.661Z,7.39
2024-03-08T11:08:24.458Z,7.42
2024-03-08T11:10:53.544Z,7.28
2024-03-08T11:13:35.871Z,7.43
2024-03-08T11:16:02.803Z,7.50
2024-03-08T11:18:29.921Z,7.61
2024-03-08T11:20:56.800Z,7.69
2024-03-08T11:23:23.668Z,7.62
2024-03-08T11:25:51.754Z,7.49
2024-03-08T11:28:19.643Z,7.54
2024-03-08T11:30:47.214Z,7.34
2024-03-08T11:33:14.068Z,7.30
2024-03-08T11:35:41.059Z,7.48
2024-03-08T11:38:09.018Z,7.33
2024-03-08T11:40:36.629Z,7.34
2024-03-08T11:43:05.128Z,7.65
2024-03-08T11:45:31.889Z,7.67
2024-03-08T11:47:59.060Z,7.65
2024-03-08T11:50:25.851Z,7.72
2024-03-08T11:52:52.615Z,7.28
2024-03-08T11:55:19.466Z,7.27
2024-03-08T11:57:46.396Z,7.43
2024-03-08T12:00:17.945Z,6.91
2024-03-08T12:02:44.749Z,7.17
2024-03-08T12:05:11.561Z,7.03
2024-03-08T12:07:38.431Z,6.95
2024-03-08T12:10:18.332Z,7.17
2024-03-08T12:12:45.483Z,7.41
2024-03-08T12:15:12.265Z,6.97
2024-03-08T12:17:40.850Z,7.21
2024-03-08T12:20:17.304Z,7.21
2024-03-08T12:22:44.182Z,7.52
2024-03-08T12:25:11.913Z,7.69
2024-03-08T12:27:38.835Z,7.64
2024-03-08T12:30:20.159Z,7.84
2024-03-08T12:32:52.284Z,7.84
2024-03-08T12:35:19.123Z,7.97
2024-03-08T12:37:45.938Z,8.03
2024-03-08T12:40:12.816Z,8.11
2024-03-08T12:42:39.559Z,8.07
2024-03-08T12:45:07.407Z,7.84
2024-03-08T12:47:34.180Z,8.11
2024-03-08T12:50:02.331Z,8.14
2024-03-08T12:52:29.198Z,8.24
2024-03-08T12:54:56.009Z,8.49
2024-03-08T12:57:22.785Z,8.76
2024-03-08T12:59:49.644Z,8.66
2024-03-08T13:02:16.569Z,8.28
2024-03-08T13:04:43.483Z,8.29
2024-03-08T13:07:11.646Z,8.25
2024-03-08T13:09:38.345Z,8.43
2024-03-08T13:12:05.754Z,8.53
2024-03-08T13:14:32.504Z,8.45
2024-03-08T13:16:59.289Z,8.73
2024-03-08T13:19:26.163Z,8.79
2024-03-08T13:21:52.989Z,8.66
2024-03-08T13:24:21.077Z,8.90
2024-03-08T13:26:48.457Z,8.97
2024-03-08T13:29:15.158Z,8.70
2024-03-08T13:31:41.904Z,8.51
2024-03-08T13:34:08.596Z,8.50
2024-03-08T13:36:35.302Z,8.23
2024-03-08T13:39:02.002Z,7.89
2024-03-08T13:41:31.677Z,8.06
2024-03-08T13:43:59.854Z,7.86
2024-03-08T13:46:26.752Z,8.09
2024-03-08T13:48:53.528Z,8.25
2024-03-08T13:51:20.276Z,8.26
2024-03-08T13:53:47.063Z,7.97
2024-03-08T13:56:13.792Z,7.87
2024-03-08T13:58:42.098Z,8.00
2024-03-08T14:01:08.929Z,8.18
2024-03-08T14:03:35.662Z,8.13
2024-03-08T14:06:02.475Z,7.89
2024-03-08T14:08:29.212Z,7.95
2024-03-08T14:10:56.149Z,7.85
2024-03-08T14:13:22.952Z,8.22
2024-03-08T14:15:50.972Z,8.19
2024-03-08T14:18:17.856Z,8.23
2024-03-08T14:20:44.542Z,8.24
2024-03-08T14:23:11.735Z,7.84
2024-03-08T14:25:38.579Z,7.88
2024-03-08T14:28:05.720Z,8.09
2024-03-08T14:30:32.443Z,8.05
2024-03-08T14:33:00.628Z,7.86
2024-03-08T14:35:27.383Z,7.55
2024-03-08T14:37:54.219Z,7.48
2024-03-08T14:40:21.010Z,7.64
2024-03-08T14:42:47.762Z,7.46
2024-03-08T14:45:14.577Z,7.37
2024-03-08T14:47:41.429Z,7.35
2024-03-08T14:50:10.248Z,7.19
2024-03-08T14:52:37.085Z,7.26
2024-03-08T14:55:04.244Z,7.04
2024-03-08T14:57:30.969Z,7.28
2024-03-08T14:59:57.712Z,7.13
2024-03-08T15:02:24.417Z,7.05
2024-03-08T15:04:51.141Z,7.02
2024-03-08T15:07:19.655Z,6.92
2024-03-08T15:09:46.369Z,6.66
2024-03-08T15:12:13.120Z,6.83
2024-03-08T15:14:41.033Z,6.97
2024-03-08T15:17:07.788Z,6.86
2024-03-08T15:19:34.630Z,6.90
2024-03-08T15:22:01.355Z,6.88
2024-03-08T15:24:29.410Z,6.74
2024-03-08T15:26:56.126Z,6.88
2024-03-08T15:29:22.858Z,6.57
2024-03-08T15:31:49.600Z,6.48
2024-03-08T15:34:16.383Z,6.37
2024-03-08T15:36:43.059Z,6.29
2024-03-08T15:39:09.747Z,6.14
2024-03-08T15:41:37.802Z,6.11
2024-03-08T15:44:04.618Z,6.42
2024-03-08T15:46:31.526Z,6.43
2024-03-08T15:48:58.426Z,6.28
2024-03-08T15:51:25.137Z,6.37
2024-03-08T15:53:51.879Z,6.37
2024-03-08T15:56:18.592Z,6.56
2024-03-08T15:58:46.687Z,6.49
2024-03-08T16:01:13.936Z,6.45
2024-03-08T16:03:40.637Z,6.32
2024-03-08T16:06:07.737Z,6.57
2024-03-08T16:08:34.644Z,6.59
2024-03-08T16:11:01.421Z,6.41
2024-03-08T16:13:28.361Z,6.66
2024-03-08T16:15:56.948Z,6.84
2024-03-08T16:18:23.968Z,7.04
2024-03-08T16:20:50.852Z,7.00
2024-03-08T16:23:17.661Z,7.08
2024-03-08T16:25:44.452Z,7.09
2024-03-08T16:28:11.482Z,7.27
2024-03-08T16:30:38.296Z,7.23
2024-03-08T16:33:06.558Z,7.34
2024-03-08T16:35:33.337Z,7.38
2024-03-08T16:38:00.169Z,7.46
2024-03-08T16:40:27.012Z,7.47
2024-03-08T16:42:53.810Z,7.56
2024-03-08T16:45:20.820Z,7.53
2024-03-08T16:47:47.756Z,7.54
2024-03-08T16:50:17.866Z,7.63
2024-03-08T16:52:44.626Z,7.54
2024-03-08T16:55:11.906Z,7.60
2024-03-08T16:57:38.686Z,7.52
2024-03-08T17:00:06.865Z,7.61
2024-03-08T17:02:33.710Z,7.72
2024-03-08T17:05:00.464Z,7.80
2024-03-08T17:07:28.630Z,7.79
2024-03-08T17:09:55.366Z,7.83
2024-03-08T17:12:22.102Z,7.91
2024-03-08T17:14:48.841Z,7.84
2024-03-08T17:17:15.748Z,7.79
2024-03-08T17:19:42.538Z,7.83
2024-03-08T17:22:09.497Z,7.89
2024-03-08T17:24:37.690Z,7.91
2024-03-08T17:27:04.425Z,7.92
2024-03-08T17:29:31.224Z,7.98
2024-03-08T17:31:58.109Z,7.94
2024-03-08T17:34:24.889Z,7.91
2024-03-08T17:36:51.569Z,7.87
2024-03-08T17:39:18.362Z,7.82
2024-03-08T17:41:47.131Z,7.75
2024-03-08T17:44:13.908Z,7.72
2024-03-08T17:46:40.701Z,7.70
2024-03-08T17:49:07.506Z,7.78
2024-03-08T17:51:35.610Z,7.71
2024-03-08T17:54:02.368Z,7.77
2024-03-08T17:56:29.044Z,7.77
2024-03-08T17:58:57.163Z,7.83
2024-03-08T18:01:24.121Z,7.82
2024-03-08T18:03:50.931Z,7.67
2024-03-08T18:06:17.674Z,7.48
2024-03-08T18:08:44.403Z,7.23
2024-03-08T18:11:11.208Z,7.33
2024-03-08T18:13:38.126Z,7.47
2024-03-08T18:16:07.371Z,7.49
2024-03-08T18:18:34.112Z,7.36
2024-03-08T18:21:00.868Z,7.02
2024-03-08T18:23:27.930Z,7.16
2024-03-08T18:25:54.722Z,7.21
2024-03-08T18:28:21.468Z,7.28
2024-03-08T18:30:48.412Z,7.37
2024-03-08T18:33:16.646Z,7.39
2024-03-08T18:35:43.387Z,7.32
2024-03-08T18:38:10.316Z,7.22
2024-03-08T18:40:37.529Z,7.23
2024-03-08T18:43:04.596Z,7.26
2024-03-08T18:45:31.290Z,7.36
2024-03-08T18:47:58.122Z,7.39
2024-03-08T18:50:26.874Z,7.39
2024-03-08T18:52:53.713Z,7.42
2024-03-08T18:55:20.806Z,7.47
2024-03-08T18:57:47.786Z,7.54
2024-03-08T19:00:15.417Z,7.44
2024-03-08T19:02:42.196Z,7.60
2024-03-08T19:05:09.066Z,7.65
2024-03-08T19:07:37.157Z,7.77
2024-03-08T19:10:04.348Z,7.79
2024-03-08T19:12:31.148Z,7.85
2024-03-08T19:14:57.930Z,7.89
2024-03-08T19:17:24.696Z,7.89
2024-03-08T19:19:51.400Z,7.82
2024-03-08T19:22:18.178Z,7.90
2024-03-08T19:24:46.266Z,7.99
2024-03-08T19:27:12.999Z,7.82
2024-03-08T19:29:39.718Z,7.85
2024-03-08T19:32:07.497Z,7.69
2024-03-08T19:34:34.282Z,7.68
2024-03-08T19:37:01.062Z,7.63
2024-03-08T19:39:27.810Z,7.67
2024-03-08T19:41:55.960Z,7.68
2024-03-08T19:44:22.729Z,7.63
2024-03-08T19:46:49.448Z,7.68
2024-03-08T19:49:16.303Z,7.72
2024-03-08T19:51:42.990Z,7.89
2024-03-08T19:54:09.745Z,7.82
2024-03-08T19:56:36.431Z,7.93
2024-03-08T19:59:04.570Z,7.89
2024-03-08T20:01:31.423Z,7.88
2024-03-08T20:03:58.175Z,7.86
2024-03-08T20:06:24.926Z,7.85
2024-03-08T20:08:51.688Z,7.74
2024-03-08T20:11:18.452Z,7.57
2024-03-08T20:13:45.361Z,7.44
2024-03-08T20:16:13.476Z,7.25
2024-03-08T20:18:40.354Z,7.35
2024-03-08T20:21:07.135Z,7.23
2024-03-08T20:23:33.904Z,7.00
2024-03-08T20:26:00.648Z,6.96
2024-03-08T20:28:27.422Z,6.99
2024-03-08T20:30:54.125Z,7.02
2024-03-08T20:33:22.204Z,7.00
2024-03-08T20:35:48.935Z,7.13
2024-03-08T20:38:15.642Z,6.95
2024-03-08T20:40:42.476Z,7.23
2024-03-08T20:43:09.408Z,7.29
2024-03-08T20:45:36.156Z,7.33
2024-03-08T20:48:02.904Z,7.44
2024-03-08T20:50:30.976Z,7.50
2024-03-08T20:52:58.062Z,7.51
2024-03-08T20:55:24.862Z,7.55
2024-03-08T20:57:52.336Z,7.68
2024-03-08T21:00:19.924Z,7.69
2024-03-08T21:02:46.998Z,7.62
2024-03-08T21:05:13.801Z,7.64
2024-03-08T21:07:41.884Z,7.66
2024-03-08T21:10:08.940Z,7.53
2024-03-08T21:12:35.693Z,7.50
2024-03-08T21:15:02.443Z,7.68
2024-03-08T21:17:29.252Z,7.64
2024-03-08T21:19:55.991Z,7.67
2024-03-08T21:22:22.770Z,7.82
2024-03-08T21:24:50.941Z,7.84
2024-03-08T21:27:17.713Z,7.79
2024-03-08T21:29:44.413Z,7.72
2024-03-08T21:32:11.320Z,7.69
2024-03-08T21:34:40.029Z,7.66
2024-03-08T21:37:06.776Z,7.56
2024-03-08T21:39:33.468Z,7.64
2024-03-08T21:42:01.527Z,7.62
2024-03-08T21:44:28.328Z,7.64
2024-03-08T21:46:55.115Z,7.78
2024-03-08T21:49:21.882Z,7.71
2024-03-08T21:51:48.773Z,7.63
2024-03-08T21:54:15.566Z,7.58
2024-03-08T21:56:42.363Z,7.63
2024-03-08T21:59:10.601Z,7.62
2024-03-08T22:01:37.610Z,7.58
2024-03-08T22:04:04.714Z,7.58
2024-03-08T22:06:31.498Z,7.59
2024-03-08T22:08:58.217Z,7.33
2024-03-08T22:11:25.114Z,7.30
2024-03-08T22:13:51.955Z,7.31
2024-03-08T22:16:20.135Z,7.29
2024-03-08T22:18:47.940Z,7.15
2024-03-08T22:21:14.696Z,7.15
2024-03-08T22:23:41.466Z,7.24
2024-03-08T22:26:08.367Z,7.30
2024-03-08T22:28:35.292Z,7.26
2024-03-08T22:31:02.137Z,7.18
2024-03-08T22:33:30.209Z,7.17
2024-03-08T22:35:56.932Z,7.09
2024-03-08T22:38:23.629Z,7.02
2024-03-08T22:40:50.409Z,6.95
2024-03-08T22:43:17.168Z,6.95
2024-03-08T22:45:43.964Z,6.93
2024-03-08T22:48:10.730Z,6.91
2024-03-08T22:50:38.780Z,7.04
2024-03-08T22:53:05.956Z,6.90
2024-03-08T22:55:32.714Z,6.93
2024-03-08T22:57:59.538Z,6.75
2024-03-08T23:00:27.533Z,6.84
2024-03-08T23:02:55.787Z,6.71
2024-03-08T23:05:22.934Z,6.87
2024-03-08T23:07:51.123Z,6.88
2024-03-08T23:10:17.872Z,6.84
2024-03-08T23:12:44.723Z,6.66
2024-03-08T23:15:11.773Z,6.70
2024-03-08T23:17:41.199Z,6.81
2024-03-08T23:20:08.914Z,6.68
2024-03-08T23:22:35.652Z,6.71
2024-03-08T23:25:04.404Z,6.73
2024-03-08T23:27:31.129Z,6.72
2024-03-08T23:29:57.867Z,6.60
2024-03-08T23:32:24.638Z,6.45
2024-03-08T23:34:51.360Z,6.52
2024-03-08T23:37:18.075Z,6.53
2024-03-08T23:39:44.764Z,6.42
2024-03-08T23:42:12.889Z,6.19
2024-03-08T23:44:41.890Z,6.18
2024-03-08T23:47:08.817Z,6.22
2024-03-08T23:49:35.542Z,6.20
2024-03-08T23:52:02.310Z,5.95
2024-03-08T23:54:29.090Z,5.97
2024-03-08T23:56:55.892Z,6.01
2024-03-08T23:59:23.979Z,6.00
